Time;durP1;ratioP1;P1;durP2;ratioP2;P2;SDS_P1;SDS_P2;PMS_P1;PMS_P2;Temp;Humidity;BMP_temperature;BMP_pressure;BME280_temperature;BME280_humidity;BME280_pressure;Samples;Min_cycle;Max_cycle;Signal;HPM_P1;HPM_P2
2024/01/23 00:01:21;;;;;;;4.95;0.77;;;5.80;99.90;;;;;;5120550;27;20262;-77
2024/01/23 00:03:48;;;;;;;1.13;0.68;;;5.90;99.90;;;;;;5117599;27;20686;-77
2024/01/23 00:06:15;;;;;;;1.20;0.57;;;5.50;99.90;;;;;;5118648;27;20202;-78
2024/01/23 00:08:42;;;;;;;0.55;0.55;;;5.50;99.90;;;;;;5110014;27;20631;-78
2024/01/23 00:11:08;;;;;;;1.67;0.50;;;5.50;99.90;;;;;;5115119;27;20674;-78
2024/01/23 00:13:35;;;;;;;2.92;0.90;;;5.50;99.90;;;;;;5114189;27;20590;-78
2024/01/23 00:16:04;;;;;;;0.75;0.63;;;5.60;99.90;;;;;;5113806;27;20648;-78
2024/01/23 00:18:31;;;;;;;1.20;0.63;;;5.50;99.90;;;;;;5113728;27;20197;-78
2024/01/23 00:20:57;;;;;;;0.50;0.40;;;5.60;99.90;;;;;;5112404;27;20194;-78
2024/01/23 00:23:24;;;;;;;0.85;0.40;;;5.70;99.90;;;;;;5112729;27;20233;-78
2024/01/23 00:25:53;;;;;;;0.93;0.70;;;5.60;99.90;;;;;;5131858;27;20276;-77
2024/01/23 00:28:20;;;;;;;0.50;0.50;;;5.50;99.90;;;;;;5130771;27;20238;-77
2024/01/23 00:30:46;;;;;;;1.30;1.13;;;5.60;99.90;;;;;;5122340;27;20585;-77
2024/01/23 00:33:14;;;;;;;0.40;0.30;;;5.60;99.90;;;;;;5128520;27;20288;-78
2024/01/23 00:35:41;;;;;;;0.40;0.40;;;5.50;99.90;;;;;;5121838;27;20205;-78
2024/01/23 00:38:08;;;;;;;2.25;1.30;;;5.40;99.90;;;;;;5128192;27;20280;-78
2024/01/23 00:40:35;;;;;;;5.03;1.00;;;6.20;99.90;;;;;;5124424;27;20690;-77
2024/01/23 00:43:02;;;;;;;0.60;0.60;;;5.40;99.90;;;;;;5126051;27;20549;-77
2024/01/23 00:45:29;;;;;;;0.75;0.50;;;5.30;99.90;;;;;;5123879;27;20197;-77
2024/01/23 00:47:56;;;;;;;0.65;0.65;;;5.20;99.90;;;;;;5123162;27;20326;-77
2024/01/23 00:50:25;;;;;;;1.13;1.02;;;5.30;99.90;;;;;;5119940;27;20232;-77
2024/01/23 00:52:53;;;;;;;2.28;0.70;;;5.30;99.90;;;;;;5119751;27;20194;-77
2024/01/23 00:55:19;;;;;;;0.45;0.45;;;5.30;99.90;;;;;;5119410;27;20208;-77
2024/01/23 00:57:46;;;;;;;0.98;0.82;;;5.30;99.90;;;;;;5118625;27;20205;-77
2024/01/23 01:00:14;;;;;;;0.70;0.65;;;5.40;99.90;;;;;;5120492;27;20309;-77
2024/01/23 01:02:40;;;;;;;3.70;2.25;;;5.40;99.90;;;;;;5116785;27;20210;-78
2024/01/23 01:05:07;;;;;;;1.48;0.68;;;5.30;99.90;;;;;;5117612;27;20660;-77
2024/01/23 01:07:36;;;;;;;0.70;0.70;;;5.30;99.90;;;;;;5116616;27;20198;-77
2024/01/23 01:10:04;;;;;;;1.25;0.75;;;5.30;99.90;;;;;;5114888;27;20831;-77
2024/01/23 01:12:30;;;;;;;0.63;0.63;;;5.40;99.90;;;;;;5114346;27;20201;-77
2024/01/23 01:14:57;;;;;;;0.90;0.60;;;5.40;99.90;;;;;;5112926;27;20285;-77
2024/01/23 01:17:24;;;;;;;1.20;1.10;;;5.30;99.90;;;;;;5113746;27;20212;-77
2024/01/23 01:19:51;;;;;;;0.68;0.60;;;5.30;99.90;;;;;;5111978;27;20190;-77
2024/01/23 01:22:17;;;;;;;0.82;0.60;;;5.10;99.90;;;;;;5110905;27;20199;-77
2024/01/23 01:24:46;;;;;;;1.08;0.98;;;5.20;99.90;;;;;;5120799;27;20193;-77
2024/01/23 01:27:12;;;;;;;1.30;1.05;;;4.90;99.90;;;;;;5129854;27;20203;-77
2024/01/23 01:29:39;;;;;;;2.42;1.00;;;5.30;99.90;;;;;;5128326;27;20635;-76
2024/01/23 01:32:07;;;;;;;1.85;0.70;;;5.20;99.90;;;;;;5128579;27;20196;-77
2024/01/23 01:34:34;;;;;;;0.60;0.50;;;5.20;99.90;;;;;;5126569;27;20280;-76
2024/01/23 01:37:01;;;;;;;0.70;0.43;;;5.20;99.90;;;;;;5127388;27;20614;-77
2024/01/23 01:39:28;;;;;;;1.08;0.47;;;5.20;99.90;;;;;;5125097;27;20668;-76
2024/01/23 01:41:56;;;;;;;1.38;0.90;;;5.20;99.90;;;;;;5124207;27;20220;-77
2024/01/23 01:44:23;;;;;;;0.40;0.40;;;5.20;99.90;;;;;;5124538;27;20190;-76
2024/01/23 01:46:50;;;;;;;0.80;0.70;;;5.20;99.90;;;;;;5122320;27;20639;-76
2024/01/23 01:49:18;;;;;;;1.50;0.70;;;5.20;99.90;;;;;;5120261;27;20232;-76
2024/01/23 01:51:47;;;;;;;0.80;0.50;;;5.10;99.90;;;;;;5116214;27;20297;-77
2024/01/23 01:54:14;;;;;;;0.95;0.85;;;5.10;99.90;;;;;;5121646;27;20195;-77
2024/01/23 01:56:42;;;;;;;0.93;0.55;;;5.10;99.90;;;;;;5115492;27;20868;-77
2024/01/23 01:59:11;;;;;;;0.57;0.57;;;5.20;99.90;;;;;;5120413;27;20208;-77
2024/01/23 02:01:39;;;;;;;0.63;0.63;;;5.20;99.90;;;;;;5116522;27;20280;-78
2024/01/23 02:04:06;;;;;;;3.08;1.08;;;5.20;99.90;;;;;;5116471;27;20611;-77
2024/01/23 02:06:35;;;;;;;0.80;0.70;;;5.20;99.90;;;;;;5115865;27;20280;-77
2024/01/23 02:09:03;;;;;;;3.75;0.70;;;5.20;99.90;;;;;;5113957;27;20223;-77
2024/01/23 02:11:31;;;;;;;0.60;0.60;;;5.20;99.90;;;;;;5113461;28;20203;-77
2024/01/23 02:13:58;;;;;;;0.65;0.40;;;5.20;99.90;;;;;;5112513;28;20190;-77
2024/01/23 02:16:26;;;;;;;1.05;0.95;;;5.20;99.90;;;;;;5112816;28;20244;-79
2024/01/23 02:18:53;;;;;;;0.80;0.60;;;5.10;99.90;;;;;;5111468;28;20194;-77
2024/01/23 02:21:20;;;;;;;0.40;0.30;;;5.10;99.90;;;;;;5110812;28;20204;-77
2024/01/23 02:23:48;;;;;;;2.58;1.33;;;5.10;99.90;;;;;;5109309;28;20198;-76
2024/01/23 02:26:15;;;;;;;1.85;1.02;;;5.00;99.90;;;;;;5126354;28;20292;-77
2024/01/23 02:28:42;;;;;;;2.15;0.47;;;5.20;99.90;;;;;;5120473;27;20204;-77
2024/01/23 02:31:09;;;;;;;0.40;0.30;;;5.10;99.90;;;;;;5128350;28;20220;-77
2024/01/23 02:33:37;;;;;;;0.50;0.50;;;5.00;99.90;;;;;;5126651;27;20304;-77
2024/01/23 02:36:06;;;;;;;1.40;0.32;;;4.90;99.90;;;;;;5129784;27;20194;-77
2024/01/23 02:38:33;;;;;;;0.90;0.75;;;4.90;99.90;;;;;;5128016;27;20204;-77
2024/01/23 02:41:03;;;;;;;0.40;0.40;;;4.90;99.90;;;;;;5117962;27;20216;-77
2024/01/23 02:43:30;;;;;;;0.40;0.30;;;4.80;99.90;;;;;;5126154;27;20288;-77
2024/01/23 02:45:58;;;;;;;13.40;0.93;;;4.80;99.90;;;;;;5126744;27;20220;-77
2024/01/23 02:48:26;;;;;;;0.47;0.43;;;4.70;99.90;;;;;;5125685;27;20577;-77
2024/01/23 02:50:55;;;;;;;0.80;0.68;;;4.80;99.90;;;;;;5120168;27;20221;-77
2024/01/23 02:53:22;;;;;;;0.88;0.52;;;4.60;99.90;;;;;;5123946;27;20196;-77
2024/01/23 02:55:51;;;;;;;2.88;1.25;;;4.70;99.90;;;;;;5118970;27;20682;-77
2024/01/23 02:58:21;;;;;;;2.63;0.82;;;4.70;99.90;;;;;;5123575;27;20226;-77
2024/01/23 03:00:48;;;;;;;2.30;0.85;;;4.60;99.90;;;;;;5120357;27;20205;-77
2024/01/23 03:03:16;;;;;;;1.08;1.00;;;4.60;99.90;;;;;;5121052;27;20206;-77
2024/01/23 03:05:45;;;;;;;0.55;0.40;;;4.60;99.90;;;;;;5112917;27;20206;-77
2024/01/23 03:08:12;;;;;;;0.90;0.60;;;4.70;99.90;;;;;;5119506;27;20251;-77
2024/01/23 03:10:41;;;;;;;2.63;0.70;;;4.70;99.90;;;;;;5117180;27;20229;-77
2024/01/23 03:13:09;;;;;;;0.60;0.50;;;4.70;99.90;;;;;;5114695;27;20297;-77
2024/01/23 03:15:38;;;;;;;7.50;1.27;;;4.70;99.90;;;;;;5115435;27;20203;-77
2024/01/23 03:18:05;;;;;;;1.52;0.95;;;4.70;99.90;;;;;;5114339;27;20222;-77
2024/01/23 03:20:33;;;;;;;0.90;0.90;;;4.70;99.90;;;;;;5114402;27;20558;-77
2024/01/23 03:23:00;;;;;;;1.70;0.82;;;4.60;99.90;;;;;;5112650;27;20190;-77
2024/01/23 03:25:27;;;;;;;0.98;0.98;;;4.70;99.90;;;;;;5122318;27;20208;-78
2024/01/23 03:27:54;;;;;;;0.40;0.40;;;4.70;99.90;;;;;;5132342;27;20221;-77
2024/01/23 03:30:29;;;;;;;2.05;0.93;;;4.70;99.90;;;;;;5130605;27;20270;-76
2024/01/23 03:32:58;;;;;;;8.15;1.42;;;4.70;99.90;;;;;;5117651;27;20216;-77
2024/01/23 03:35:26;;;;;;;2.40;1.10;;;4.70;99.90;;;;;;5128971;27;20225;-78
2024/01/23 03:37:54;;;;;;;1.05;0.47;;;4.80;99.90;;;;;;5129314;27;20221;-77
2024/01/23 03:40:24;;;;;;;1.38;1.27;;;4.80;99.90;;;;;;5128171;27;20204;-77
2024/01/23 03:42:52;;;;;;;1.40;1.17;;;4.70;99.90;;;;;;5125728;27;20198;-77
2024/01/23 03:45:19;;;;;;;0.88;0.85;;;4.80;99.90;;;;;;5125861;27;20213;-77
2024/01/23 03:47:46;;;;;;;0.55;0.55;;;4.80;99.90;;;;;;5113472;27;20197;-77
2024/01/23 03:50:15;;;;;;;0.70;0.70;;;4.80;99.90;;;;;;5122139;27;20576;-77
2024/01/23 03:52:42;;;;;;;1.58;1.05;;;4.80;99.90;;;;;;5120983;27;20670;-77
2024/01/23 03:55:09;;;;;;;2.55;0.73;;;4.70;99.90;;;;;;5120614;27;20197;-77
2024/01/23 03:57:36;;;;;;;1.30;0.90;;;4.80;99.90;;;;;;5121282;27;20581;-77
2024/01/23 04:00:03;;;;;;;2.03;1.35;;;4.80;99.90;;;;;;5123836;27;20193;-77
2024/01/23 04:02:36;;;;;;;0.60;0.60;;;4.80;99.90;;;;;;5119436;27;20644;-77
2024/01/23 04:05:04;;;;;;;12.05;1.40;;;5.00;99.90;;;;;;5120158;27;20209;-77
2024/01/23 04:07:32;;;;;;;1.40;1.30;;;5.00;99.90;;;;;;5122091;27;20200;-77
2024/01/23 04:09:58;;;;;;;1.05;0.85;;;5.00;99.90;;;;;;5121436;27;20740;-77
2024/01/23 04:12:25;;;;;;;2.78;1.10;;;5.10;99.90;;;;;;5121026;27;20581;-77
2024/01/23 04:14:52;;;;;;;1.77;1.00;;;5.00;99.90;;;;;;5120888;27;20273;-77
2024/01/23 04:17:19;;;;;;;4.55;1.25;;;4.90;99.90;;;;;;5122170;27;20250;-77
2024/01/23 04:19:46;;;;;;;0.98;0.70;;;5.00;99.90;;;;;;5118345;27;20651;-76
2024/01/23 04:22:13;;;;;;;0.65;0.50;;;5.00;99.90;;;;;;5119145;27;20210;-77
2024/01/23 04:24:41;;;;;;;5.45;1.60;;;5.00;99.90;;;;;;5116944;27;20190;-77
2024/01/23 04:27:08;;;;;;;1.45;0.85;;;5.30;99.90;;;;;;5117056;27;20202;-77
2024/01/23 04:29:36;;;;;;;2.53;0.98;;;5.30;99.90;;;;;;5116506;27;20276;-77
2024/01/23 04:32:03;;;;;;;1.15;0.88;;;5.30;99.90;;;;;;5114548;27;20249;-77
2024/01/23 04:34:30;;;;;;;4.03;1.30;;;5.70;99.90;;;;;;5114920;27;20556;-77
2024/01/23 04:36:57;;;;;;;4.45;0.88;;;5.20;99.90;;;;;;5112755;27;20277;-77
2024/01/23 04:39:24;;;;;;;9.18;1.60;;;5.20;99.90;;;;;;5113194;27;20213;-77
2024/01/23 04:41:52;;;;;;;7.82;1.75;;;5.20;99.90;;;;;;5111486;27;20263;-77
2024/01/23 04:44:19;;;;;;;12.05;1.35;;;5.30;99.90;;;;;;5128105;27;20207;-77
2024/01/23 04:46:46;;;;;;;1.15;1.08;;;5.20;99.90;;;;;;5114472;27;20293;-76
2024/01/23 04:49:13;;;;;;;0.60;0.50;;;5.20;99.90;;;;;;5127236;27;20228;-76
2024/01/23 04:51:39;;;;;;;1.95;0.70;;;5.10;99.90;;;;;;5126730;27;20430;-76
2024/01/23 04:54:06;;;;;;;0.60;0.60;;;5.10;99.90;;;;;;5128240;27;20211;-76
2024/01/23 04:56:33;;;;;;;11.52;2.13;;;5.20;99.90;;;;;;5118585;27;20212;-76
2024/01/23 04:59:01;;;;;;;2.90;0.40;;;5.10;99.90;;;;;;5114719;27;20193;-76
2024/01/23 05:01:28;;;;;;;0.40;0.40;;;5.00;99.90;;;;;;5124107;27;20203;-76
2024/01/23 05:03:55;;;;;;;0.93;0.60;;;4.90;99.90;;;;;;5123806;27;20222;-77
2024/01/23 05:06:21;;;;;;;3.38;0.85;;;5.00;99.90;;;;;;5123776;27;20212;-77
2024/01/23 05:08:48;;;;;;;0.77;0.52;;;5.00;99.90;;;;;;5120936;27;20204;-77
2024/01/23 05:11:15;;;;;;;3.40;1.60;;;4.90;99.90;;;;;;5122324;27;20225;-77
2024/01/23 05:13:42;;;;;;;3.92;1.23;;;4.90;99.90;;;;;;5118995;27;20212;-77
2024/01/23 05:16:10;;;;;;;1.75;0.82;;;4.90;99.90;;;;;;5120553;27;20206;-77
2024/01/23 05:18:37;;;;;;;1.20;0.82;;;4.90;99.90;;;;;;5115653;27;20196;-77
2024/01/23 05:21:04;;;;;;;1.70;0.80;;;4.90;99.90;;;;;;5115650;27;20206;-77
2024/01/23 05:23:31;;;;;;;0.88;0.63;;;4.90;99.90;;;;;;5117064;27;20194;-77
2024/01/23 05:25:58;;;;;;;3.03;1.48;;;4.90;99.90;;;;;;5115595;27;20190;-77
2024/01/23 05:28:26;;;;;;;1.08;0.80;;;4.80;99.90;;;;;;5116996;27;20606;-77
2024/01/23 05:30:53;;;;;;;2.08;0.98;;;5.00;99.90;;;;;;5113938;27;20221;-77
2024/01/23 05:33:21;;;;;;;3.25;1.38;;;4.90;99.90;;;;;;5113572;27;20206;-77
2024/01/23 05:35:48;;;;;;;1.10;0.70;;;4.90;99.90;;;;;;5112953;27;20595;-77
2024/01/23 05:38:14;;;;;;;1.15;0.90;;;4.90;99.90;;;;;;5112025;27;20236;-77
2024/01/23 05:40:41;;;;;;;0.68;0.47;;;4.80;99.90;;;;;;5111647;27;20197;-77
2024/01/23 05:43:08;;;;;;;1.23;0.80;;;4.80;99.90;;;;;;5109909;28;20194;-76
2024/01/23 05:45:35;;;;;;;0.82;0.82;;;4.80;99.90;;;;;;5128535;27;20732;-77
2024/01/23 05:48:02;;;;;;;0.68;0.40;;;4.70;99.90;;;;;;5128347;27;21014;-77
2024/01/23 05:50:30;;;;;;;1.00;0.52;;;4.70;99.90;;;;;;5123971;27;20235;-76
2024/01/23 05:52:57;;;;;;;7.40;0.93;;;4.70;99.90;;;;;;5127835;27;20193;-78
2024/01/23 05:55:23;;;;;;;0.85;0.60;;;4.60;99.90;;;;;;5119042;27;20715;-77
2024/01/23 05:57:51;;;;;;;1.75;0.95;;;4.60;99.90;;;;;;5125565;27;20764;-77
2024/01/23 06:00:18;;;;;;;2.95;0.73;;;4.60;99.90;;;;;;5125211;27;20205;-77
2024/01/23 06:02:45;;;;;;;0.40;0.30;;;4.60;99.90;;;;;;5119832;27;20212;-77
2024/01/23 06:05:12;;;;;;;0.70;0.40;;;4.60;99.90;;;;;;5124640;27;20211;-77
2024/01/23 06:07:43;;;;;;;1.70;0.60;;;4.50;99.90;;;;;;5120226;27;20801;-78
2024/01/23 06:10:10;;;;;;;1.27;0.90;;;4.50;99.90;;;;;;5113014;28;20711;-77
2024/01/23 06:12:37;;;;;;;1.95;0.50;;;4.50;99.90;;;;;;5117715;27;20224;-77
2024/01/23 06:15:05;;;;;;;0.60;0.50;;;4.50;99.90;;;;;;5119352;28;20586;-77
2024/01/23 06:17:32;;;;;;;0.30;0.30;;;4.40;99.90;;;;;;5118908;27;20583;-77
2024/01/23 06:20:01;;;;;;;0.30;0.20;;;4.40;99.90;;;;;;5117028;27;20194;-77
2024/01/23 06:22:27;;;;;;;0.85;0.40;;;4.40;99.90;;;;;;5117848;28;20581;-77
2024/01/23 06:25:06;;;;;;;0.40;0.40;;;4.30;99.90;;;;;;5115131;28;20205;-77
2024/01/23 06:27:32;;;;;;;0.50;0.40;;;4.30;99.90;;;;;;5112059;28;20599;-77
2024/01/23 06:29:59;;;;;;;0.40;0.40;;;4.20;99.90;;;;;;5113897;28;20197;-77
2024/01/23 06:32:26;;;;;;;0.30;0.20;;;4.20;99.90;;;;;;5114264;28;20226;-77
2024/01/23 06:34:53;;;;;;;0.40;0.30;;;4.10;99.90;;;;;;5112262;28;20221;-77
2024/01/23 06:37:23;;;;;;;0.50;0.40;;;4.10;99.90;;;;;;5112601;28;20284;-77
2024/01/23 06:39:50;;;;;;;0.38;0.38;;;4.10;99.90;;;;;;5110800;28;20205;-77
2024/01/23 06:42:18;;;;;;;0.40;0.40;;;4.00;99.90;;;;;;5110088;28;20265;-77
2024/01/23 06:44:45;;;;;;;0.30;0.22;;;4.00;99.90;;;;;;5121751;28;20201;-77
2024/01/23 06:47:12;;;;;;;0.30;0.20;;;4.00;99.90;;;;;;5129255;27;20230;-77
2024/01/23 06:49:38;;;;;;;0.52;0.47;;;4.00;99.90;;;;;;5123867;27;20308;-77
2024/01/23 06:52:05;;;;;;;0.30;0.20;;;4.10;99.90;;;;;;5127424;27;20220;-77
2024/01/23 06:54:32;;;;;;;1.77;0.32;;;4.00;99.90;;;;;;5123759;28;20206;-77
2024/01/23 06:57:00;;;;;;;0.40;0.35;;;4.00;99.90;;;;;;5120308;28;20200;-77
2024/01/23 06:59:28;;;;;;;0.80;0.63;;;4.10;99.90;;;;;;5124866;28;20339;-77
2024/01/23 07:01:55;;;;;;;0.40;0.30;;;4.00;99.90;;;;;;5123662;27;20204;-77
2024/01/23 07:04:22;;;;;;;0.40;0.30;;;4.00;99.90;;;;;;5123918;27;20299;-77
2024/01/23 07:06:49;;;;;;;0.30;0.20;;;3.90;99.90;;;;;;5120901;27;20701;-77
2024/01/23 07:09:16;;;;;;;0.30;0.20;;;3.80;99.90;;;;;;5122703;27;20681;-77
2024/01/23 07:11:42;;;;;;;1.95;0.70;;;3.80;99.90;;;;;;5116962;28;20241;-77
2024/01/23 07:14:09;;;;;;;0.60;0.30;;;3.70;99.90;;;;;;5121088;28;20204;-77
2024/01/23 07:16:38;;;;;;;0.60;0.50;;;3.70;99.90;;;;;;5118378;27;20205;-77
2024/01/23 07:19:04;;;;;;;0.90;0.30;;;3.70;99.90;;;;;;5118616;27;20276;-77
2024/01/23 07:21:31;;;;;;;0.35;0.35;;;3.60;99.90;;;;;;5120825;27;20203;-77
2024/01/23 07:23:58;;;;;;;0.63;0.60;;;3.60;99.90;;;;;;5119355;27;20201;-77
2024/01/23 07:26:25;;;;;;;1.10;0.82;;;3.50;99.90;;;;;;5115307;27;20192;-77
2024/01/23 07:28:52;;;;;;;0.50;0.45;;;3.50;99.90;;;;;;5117767;27;20202;-77
2024/01/23 07:31:18;;;;;;;1.52;0.52;;;3.40;99.90;;;;;;5118764;27;20298;-77
2024/01/23 07:33:46;;;;;;;0.57;0.55;;;3.40;99.90;;;;;;5121010;27;20200;-77
2024/01/23 07:36:13;;;;;;;0.93;0.63;;;3.30;99.90;;;;;;5115281;27;20205;-77
2024/01/23 07:38:40;;;;;;;0.50;0.50;;;3.30;99.90;;;;;;5115535;27;20209;-77
2024/01/23 07:41:07;;;;;;;1.83;1.73;;;3.20;99.90;;;;;;5114076;27;20291;-77
2024/01/23 07:43:33;;;;;;;0.95;0.63;;;3.30;99.90;;;;;;5113017;27;20201;-77
2024/01/23 07:46:01;;;;;;;1.10;1.00;;;3.30;99.90;;;;;;5118270;27;20230;-77
2024/01/23 07:48:29;;;;;;;1.45;0.88;;;3.30;99.90;;;;;;5131212;27;20390;-77
2024/01/23 07:50:57;;;;;;;1.48;0.68;;;3.20;99.90;;;;;;5126916;27;20204;-77
2024/01/23 07:53:24;;;;;;;0.43;0.43;;;3.30;99.90;;;;;;5128588;27;20299;-77
2024/01/23 07:55:50;;;;;;;0.77;0.50;;;3.50;99.90;;;;;;5122307;27;20547;-77
2024/01/23 07:58:17;;;;;;;1.38;0.80;;;3.60;99.90;;;;;;5129082;27;20258;-77
2024/01/23 08:00:44;;;;;;;1.85;0.70;;;3.70;99.90;;;;;;5126207;27;20204;-77
2024/01/23 08:03:11;;;;;;;0.95;0.75;;;3.80;99.90;;;;;;5126659;27;20224;-77
2024/01/23 08:05:38;;;;;;;3.28;1.42;;;3.80;99.90;;;;;;5124378;27;20196;-77
2024/01/23 08:08:07;;;;;;;0.95;0.57;;;3.80;99.90;;;;;;5126047;27;20210;-77
2024/01/23 08:10:35;;;;;;;0.60;0.55;;;3.80;99.90;;;;;;5123809;27;20220;-77
2024/01/23 08:13:02;;;;;;;0.50;0.50;;;3.80;99.90;;;;;;5121098;27;20231;-78
2024/01/23 08:15:28;;;;;;;0.30;0.20;;;3.80;99.90;;;;;;5123287;27;20188;-77
2024/01/23 08:17:55;;;;;;;0.70;0.52;;;3.80;99.90;;;;;;5119489;27;20276;-77
2024/01/23 08:20:22;;;;;;;0.40;0.30;;;3.70;99.90;;;;;;5122259;27;20207;-76
2024/01/23 08:22:49;;;;;;;0.98;0.98;;;3.60;99.90;;;;;;5118112;27;20543;-77
2024/01/23 08:25:17;;;;;;;3.05;0.95;;;3.70;99.90;;;;;;5119992;27;20205;-77
2024/01/23 08:27:44;;;;;;;2.35;1.00;;;3.80;99.90;;;;;;5117146;27;20192;-77
2024/01/23 08:30:12;;;;;;;3.17;1.02;;;3.80;99.90;;;;;;5116880;27;20198;-79
2024/01/23 08:32:39;;;;;;;1.10;0.98;;;3.90;99.90;;;;;;5115109;27;20300;-77
2024/01/23 08:35:07;;;;;;;0.50;0.38;;;4.00;99.90;;;;;;5115052;27;20198;-77
2024/01/23 08:37:33;;;;;;;1.55;0.77;;;4.00;99.90;;;;;;5115361;27;20201;-77
2024/01/23 08:40:00;;;;;;;2.15;0.50;;;4.00;99.90;;;;;;5113592;27;20209;-77
2024/01/23 08:42:28;;;;;;;5.90;0.80;;;3.90;99.90;;;;;;5112410;27;20281;-77
2024/01/23 08:44:55;;;;;;;1.75;1.48;;;4.10;99.90;;;;;;5111301;27;20709;-77
2024/01/23 08:47:22;;;;;;;0.65;0.65;;;4.20;99.90;;;;;;5127867;27;20215;-77
2024/01/23 08:49:49;;;;;;;0.75;0.75;;;4.40;99.90;;;;;;5126857;27;20205;-77
2024/01/23 08:52:17;;;;;;;0.50;0.50;;;4.30;99.90;;;;;;5129970;27;20217;-77
2024/01/23 08:54:43;;;;;;;2.15;0.73;;;4.40;99.90;;;;;;5125586;27;20589;-77
2024/01/23 08:57:10;;;;;;;1.35;1.15;;;4.50;99.90;;;;;;5123755;27;20221;-76
2024/01/23 08:59:40;;;;;;;0.40;0.40;;;4.50;99.90;;;;;;5125495;27;20197;-77
2024/01/23 09:02:07;;;;;;;1.08;0.93;;;4.60;99.90;;;;;;5126735;27;20647;-77
2024/01/23 09:04:34;;;;;;;3.08;0.75;;;4.60;99.90;;;;;;5124724;27;20221;-78
2024/01/23 09:07:01;;;;;;;0.90;0.80;;;4.60;99.90;;;;;;5125266;27;20198;-78
2024/01/23 09:09:28;;;;;;;1.42;0.55;;;4.60;99.90;;;;;;5124188;27;20219;-77
2024/01/23 09:11:55;;;;;;;0.40;0.40;;;4.60;99.90;;;;;;5119528;27;20221;-77
2024/01/23 09:14:22;;;;;;;0.77;0.55;;;4.70;99.90;;;;;;5123255;27;20727;-78
2024/01/23 09:16:50;;;;;;;0.75;0.40;;;4.70;99.90;;;;;;5119673;27;20202;-78
2024/01/23 09:19:17;;;;;;;0.65;0.52;;;4.70;99.90;;;;;;5113944;27;20642;-78
2024/01/23 09:21:44;;;;;;;5.35;0.75;;;4.80;99.90;;;;;;5117774;27;20217;-77
2024/01/23 09:24:11;;;;;;;1.58;0.68;;;4.80;99.90;;;;;;5119282;27;20825;-77
2024/01/23 09:26:38;;;;;;;1.70;0.75;;;4.90;99.90;;;;;;5117047;27;20189;-78
2024/01/23 09:29:05;;;;;;;0.40;0.40;;;4.90;99.90;;;;;;5115836;27;20646;-78
2024/01/23 09:31:32;;;;;;;1.00;0.80;;;5.00;99.90;;;;;;5116665;27;20289;-78
2024/01/23 09:34:01;;;;;;;0.40;0.38;;;5.00;99.90;;;;;;5114705;27;20281;-78
2024/01/23 09:36:28;;;;;;;0.77;0.65;;;5.10;99.90;;;;;;5115233;27;20198;-78
2024/01/23 09:38:55;;;;;;;2.28;0.95;;;5.20;99.90;;;;;;5112916;27;20233;-77
2024/01/23 09:41:23;;;;;;;0.47;0.35;;;5.30;99.90;;;;;;5112753;27;20229;-77
2024/01/23 09:43:51;;;;;;;16.95;0.85;;;5.30;99.90;;;;;;5110459;27;20292;-77
2024/01/23 09:46:18;;;;;;;0.93;0.63;;;5.30;99.90;;;;;;5110703;27;20213;-77
2024/01/23 09:48:47;;;;;;;0.47;0.47;;;5.40;99.90;;;;;;5121898;27;20280;-77
2024/01/23 09:51:15;;;;;;;0.30;0.30;;;5.40;99.90;;;;;;5125765;27;20241;-78
2024/01/23 09:53:43;;;;;;;0.88;0.55;;;5.50;99.90;;;;;;5126222;27;20646;-77
2024/01/23 09:56:13;;;;;;;1.60;0.85;;;5.40;99.90;;;;;;5121505;27;20197;-77
2024/01/23 09:58:40;;;;;;;0.63;0.63;;;5.40;99.90;;;;;;5126359;27;20280;-77
2024/01/23 10:01:07;;;;;;;1.92;0.80;;;5.50;99.90;;;;;;5127105;27;20280;-78
2024/01/23 10:03:34;;;;;;;0.40;0.20;;;5.40;99.90;;;;;;5124236;27;20280;-78
2024/01/23 10:06:03;;;;;;;1.48;1.05;;;5.40;99.90;;;;;;5124830;27;20205;-78
2024/01/23 10:08:31;;;;;;;0.77;0.50;;;5.50;99.90;;;;;;5124179;27;20254;-78
2024/01/23 10:10:59;;;;;;;0.77;0.52;;;5.60;99.90;;;;;;5122717;27;20202;-78
2024/01/23 10:13:26;;;;;;;2.05;0.77;;;5.70;99.90;;;;;;5120554;27;20307;-78
2024/01/23 10:15:54;;;;;;;0.63;0.63;;;5.70;99.90;;;;;;5119696;28;20183;-78
2024/01/23 10:18:22;;;;;;;2.15;0.80;;;5.70;99.90;;;;;;5122005;27;20205;-78
2024/01/23 10:20:49;;;;;;;4.15;0.82;;;5.70;99.90;;;;;;5112976;27;20198;-78
2024/01/23 10:23:17;;;;;;;2.80;0.82;;;5.80;99.90;;;;;;5119772;28;20277;-78
2024/01/23 10:25:45;;;;;;;1.63;0.90;;;5.80;99.90;;;;;;5117163;28;20190;-78
2024/01/23 10:28:14;;;;;;;1.25;1.15;;;5.90;99.90;;;;;;5117524;28;20229;-78
2024/01/23 10:30:43;;;;;;;0.95;0.60;;;6.00;99.90;;;;;;5115553;28;20198;-77
2024/01/23 10:33:11;;;;;;;1.90;1.63;;;6.10;99.90;;;;;;5114084;27;20236;-78
2024/01/23 10:35:38;;;;;;;1.00;0.60;;;6.20;99.90;;;;;;5114417;28;21240;-78
2024/01/23 10:38:06;;;;;;;2.40;1.48;;;6.20;99.90;;;;;;5113428;27;20198;-78
2024/01/23 10:40:33;;;;;;;5.15;1.42;;;6.40;99.90;;;;;;5113317;28;20213;-77
2024/01/23 10:43:04;;;;;;;1.52;1.10;;;6.40;99.90;;;;;;5111159;28;20273;-78
2024/01/23 10:45:32;;;;;;;2.58;1.15;;;6.40;99.90;;;;;;5111166;28;20281;-78
2024/01/23 10:48:01;;;;;;;1.58;0.82;;;6.50;99.90;;;;;;5109671;28;20210;-78
2024/01/23 10:50:29;;;;;;;0.75;0.73;;;6.50;99.90;;;;;;5118325;28;20246;-78
2024/01/23 10:53:03;;;;;;;5.35;0.70;;;6.70;99.90;;;;;;5128574;27;20252;-78
2024/01/23 10:55:32;;;;;;;2.97;0.85;;;6.60;99.90;;;;;;5121384;27;20202;-77
2024/01/23 10:58:04;;;;;;;0.40;0.40;;;6.60;99.90;;;;;;5117832;27;20283;-78
2024/01/23 11:00:33;;;;;;;1.02;0.70;;;6.60;99.90;;;;;;5129427;27;20201;-78
2024/01/23 11:03:04;;;;;;;0.40;0.22;;;6.70;99.90;;;;;;5122669;27;20194;-78
2024/01/23 11:05:38;;;;;;;0.80;0.47;;;6.60;99.90;;;;;;5127362;27;20727;-77
2024/01/23 11:08:18;;;;;;;0.85;0.60;;;6.80;99.90;;;;;;5128532;27;20591;-80
2024/01/23 11:10:47;;;;;;;4.43;1.77;;;6.70;99.90;;;;;;5123871;27;20650;-78
2024/01/23 11:13:24;;;;;;;1.90;1.15;;;6.80;99.90;;;;;;5118492;27;20228;-78
2024/01/23 11:15:50;;;;;;;0.98;0.65;;;6.80;99.90;;;;;;5119196;27;20732;-78
2024/01/23 11:18:32;;;;;;;1.98;1.25;;;6.90;99.90;;;;;;5125245;27;20221;-78
2024/01/23 11:21:17;;;;;;;2.83;0.73;;;7.00;99.90;;;;;;5118650;27;20213;-78
2024/01/23 11:23:45;;;;;;;1.10;0.77;;;7.00;99.90;;;;;;5120138;27;20622;-78
2024/01/23 11:26:16;;;;;;;1.60;1.27;;;7.00;99.90;;;;;;5121451;27;20706;-78
2024/01/23 11:28:46;;;;;;;0.63;0.40;;;7.10;99.90;;;;;;5119212;27;20627;-78
2024/01/23 11:31:18;;;;;;;1.40;0.70;;;7.10;99.90;;;;;;5118909;27;20714;-78
2024/01/23 11:33:45;;;;;;;6.10;1.67;;;7.20;99.90;;;;;;5116821;27;21218;-78
2024/01/23 11:36:13;;;;;;;1.85;0.75;;;7.30;99.90;;;;;;5116639;27;20636;-78
2024/01/23 11:38:44;;;;;;;5.07;1.40;;;7.30;99.90;;;;;;5116647;27;20190;-78
2024/01/23 11:41:21;;;;;;;3.87;1.47;;;7.40;99.90;;;;;;5115124;27;20662;-78
2024/01/23 11:43:50;;;;;;;0.70;0.70;;;7.30;99.60;;;;;;5106980;27;20968;-78
2024/01/23 11:46:21;;;;;;;2.13;1.00;;;7.30;99.40;;;;;;5112623;27;20727;-78
2024/01/23 11:48:49;;;;;;;1.20;0.80;;;7.30;99.40;;;;;;5104617;28;20719;-78
2024/01/23 11:51:17;;;;;;;0.73;0.50;;;7.30;99.90;;;;;;5127968;27;20748;-78
2024/01/23 11:53:46;;;;;;;4.70;1.63;;;7.30;99.10;;;;;;5129464;27;20667;-78
2024/01/23 11:56:13;;;;;;;0.80;0.77;;;7.20;99.30;;;;;;5123862;27;20622;-78
2024/01/23 11:58:42;;;;;;;3.00;0.80;;;7.30;98.60;;;;;;5128172;27;20622;-78
2024/01/23 12:01:12;;;;;;;1.93;0.67;;;7.20;99.30;;;;;;5129650;27;20208;-78
2024/01/23 12:03:47;;;;;;;0.70;0.65;;;7.30;99.50;;;;;;5126375;27;20619;-78
2024/01/23 12:06:14;;;;;;;1.75;0.45;;;7.20;98.90;;;;;;5126938;27;20204;-78
2024/01/23 12:08:41;;;;;;;1.15;0.73;;;7.30;98.60;;;;;;5124786;27;20535;-78
2024/01/23 12:11:08;;;;;;;0.83;0.60;;;7.30;99.20;;;;;;5114917;27;20205;-78
2024/01/23 12:13:36;;;;;;;1.37;1.27;;;7.30;99.40;;;;;;5121906;27;20670;-78
2024/01/23 12:16:03;;;;;;;5.23;0.80;;;7.30;98.70;;;;;;5123818;27;20715;-78
2024/01/23 12:18:31;;;;;;;1.30;1.20;;;7.30;98.30;;;;;;5123517;27;20619;-77
2024/01/23 12:20:58;;;;;;;2.30;1.27;;;7.30;98.20;;;;;;5120700;27;20193;-78
2024/01/23 12:23:25;;;;;;;0.60;0.60;;;7.30;97.90;;;;;;5121973;27;20718;-77
2024/01/23 12:25:52;;;;;;;1.57;1.20;;;7.40;99.90;;;;;;5118306;27;20626;-78
2024/01/23 12:28:20;;;;;;;1.90;1.00;;;7.40;98.30;;;;;;5120864;27;20731;-78
2024/01/23 12:30:48;;;;;;;1.27;1.00;;;7.40;97.40;;;;;;5117466;27;20631;-78
2024/01/23 12:33:16;;;;;;;11.10;1.03;;;7.40;97.80;;;;;;5117329;27;20663;-78
2024/01/23 12:35:45;;;;;;;1.37;0.47;;;7.40;97.50;;;;;;5116593;27;20632;-78
2024/01/23 12:38:14;;;;;;;14.63;1.03;;;7.50;98.20;;;;;;5114570;27;20624;-78
2024/01/23 12:40:41;;;;;;;1.63;0.63;;;7.40;97.60;;;;;;5113601;27;20607;-78
2024/01/23 12:43:09;;;;;;;1.13;0.83;;;7.40;98.00;;;;;;5113496;27;20722;-78
2024/01/23 12:45:36;;;;;;;1.83;0.70;;;7.40;97.70;;;;;;5113733;27;21150;-78
2024/01/23 12:48:03;;;;;;;0.87;0.70;;;7.30;97.50;;;;;;5112067;27;20767;-78
2024/01/23 12:50:30;;;;;;;1.80;0.87;;;7.30;97.30;;;;;;5112505;27;20727;-78
2024/01/23 12:53:00;;;;;;;2.73;1.33;;;7.30;97.20;;;;;;5129923;27;21018;-77
2024/01/23 12:55:28;;;;;;;4.03;0.73;;;7.30;98.10;;;;;;5121516;27;20661;-78
2024/01/23 12:57:55;;;;;;;2.00;0.70;;;7.30;97.40;;;;;;5114909;27;20652;-77
2024/01/23 13:00:22;;;;;;;1.67;0.60;;;7.30;97.70;;;;;;5129030;27;20635;-78